Time;durP1;ratioP1;P1;durP2;ratioP2;P2;SDS_P1;SDS_P2;PMS_P1;PMS_P2;Temp;Humidity;BMP_temperature;BMP_pressure;BME280_temperature;BME280_humidity;BME280_pressure;Samples;Min_cycle;Max_cycle;Signal;HPM_P1;HPM_P2
2021/05/25 00:00:17;;;;;;;20.40;8.20;;;;;;;12.70;55.80;100368.47;5069518;28;20485;-47
2021/05/25 00:02:44;;;;;;;15.93;8.00;;;;;;;12.69;55.47;100374.00;5071394;28;20037;-44
2021/05/25 00:05:12;;;;;;;12.45;7.38;;;;;;;12.63;55.89;100365.44;5073120;28;20127;-46
2021/05/25 00:07:37;;;;;;;14.30;8.10;;;;;;;12.60;55.54;100364.84;5073538;28;20481;-44
2021/05/25 00:10:05;;;;;;;12.68;7.72;;;;;;;12.61;56.04;100363.88;5073269;28;20082;-48
2021/05/25 00:12:39;;;;;;;13.23;8.00;;;;;;;12.59;56.03;100355.06;5072345;28;20139;-43
2021/05/25 00:15:08;;;;;;;15.40;7.35;;;;;;;12.49;56.20;100358.47;5072880;28;20048;-45
2021/05/25 00:17:34;;;;;;;12.35;7.07;;;;;;;12.55;55.99;100364.38;5072928;28;20466;-48
2021/05/25 00:19:59;;;;;;;9.75;5.95;;;;;;;12.41;56.00;100352.00;5072731;28;20143;-44
2021/05/25 00:22:25;;;;;;;9.88;5.53;;;;;;;12.38;55.81;100336.16;5073149;28;20040;-44
2021/05/25 00:24:50;;;;;;;8.15;5.07;;;;;;;12.59;56.03;100365.81;5073063;28;20032;-50
2021/05/25 00:27:16;;;;;;;10.60;4.72;;;;;;;12.30;55.61;100304.56;5073017;28;20055;-45
2021/05/25 00:29:41;;;;;;;9.50;5.00;;;;;;;12.72;55.71;100361.16;5072730;28;20397;-45
2021/05/25 00:32:07;;;;;;;9.35;4.35;;;;;;;12.75;55.49;100362.75;5072830;28;20055;-47
2021/05/25 00:34:32;;;;;;;6.93;4.10;;;;;;;12.85;55.20;100374.44;5072962;28;20040;-49
2021/05/25 00:36:58;;;;;;;6.97;4.43;;;;;;;12.92;55.15;100380.16;5072883;28;20379;-49
2021/05/25 00:39:23;;;;;;;7.80;3.88;;;;;;;12.97;55.00;100372.56;5072413;28;20490;-47
2021/05/25 00:41:49;;;;;;;9.25;4.50;;;;;;;12.75;54.86;100331.34;5061276;28;20063;-46
2021/05/25 00:44:14;;;;;;;5.75;4.28;;;;;;;12.95;54.76;100358.41;5051724;28;20044;-50
2021/05/25 00:46:40;;;;;;;6.85;4.25;;;;;;;12.98;54.86;100371.59;5052518;28;20075;-49
2021/05/25 00:49:06;;;;;;;6.97;4.03;;;;;;;12.98;54.91;100381.50;5052350;28;20124;-46
2021/05/25 00:51:33;;;;;;;9.43;4.05;;;;;;;12.86;54.77;100367.25;5052611;28;20029;-47
2021/05/25 00:53:59;;;;;;;8.82;4.10;;;;;;;12.85;54.87;100366.38;5052388;28;20033;-46
2021/05/25 00:56:25;;;;;;;9.27;3.75;;;;;;;12.80;54.99;100365.91;5052352;28;20039;-46
2021/05/25 00:58:51;;;;;;;7.60;3.67;;;;;;;12.83;55.01;100376.41;5052211;28;20033;-44
2021/05/25 01:01:18;;;;;;;7.90;3.78;;;;;;;12.74;54.96;100371.78;5050849;28;20037;-48
2021/05/25 01:03:43;;;;;;;9.00;3.92;;;;;;;12.71;54.78;100372.88;5052443;28;20072;-50
2021/05/25 01:06:09;;;;;;;6.70;3.65;;;;;;;12.81;54.93;100377.53;5052316;28;20053;-45
2021/05/25 01:08:37;;;;;;;8.10;3.50;;;;;;;12.97;54.75;100394.06;5051884;28;20051;-47
2021/05/25 01:11:05;;;;;;;6.30;3.75;;;;;;;12.95;54.62;100377.22;5051988;28;20037;-48
2021/05/25 01:13:39;;;;;;;8.73;3.60;;;;;;;13.12;54.26;100391.13;5051723;28;20049;-48
2021/05/25 01:16:05;;;;;;;7.72;3.80;;;;;;;13.13;54.15;100387.44;5051854;28;20115;-48
2021/05/25 01:18:32;;;;;;;5.25;3.70;;;;;;;13.19;53.77;100385.13;5051846;28;20044;-49
2021/05/25 01:20:58;;;;;;;5.15;3.95;;;;;;;13.14;53.87;100368.53;5051316;28;20048;-48
2021/05/25 01:23:24;;;;;;;6.65;3.80;;;;;;;13.30;53.82;100397.66;5052026;28;20033;-45
2021/05/25 01:25:51;;;;;;;6.82;3.33;;;;;;;12.67;53.75;100290.81;5051589;28;20029;-47
2021/05/25 01:28:20;;;;;;;5.97;3.70;;;;;;;13.37;53.43;100394.47;5051908;28;20040;-51
2021/05/25 01:30:52;;;;;;;7.07;3.65;;;;;;;13.49;53.57;100406.91;5050532;28;20119;-49
2021/05/25 01:33:19;;;;;;;5.68;3.30;;;;;;;13.12;52.86;100326.59;5050603;28;20513;-45
2021/05/25 01:35:45;;;;;;;4.22;3.15;;;;;;;13.58;52.80;100397.22;5051952;28;20033;-47
2021/05/25 01:38:13;;;;;;;6.80;3.30;;;;;;;13.56;52.62;100388.41;5051824;28;20119;-46
2021/05/25 01:40:40;;;;;;;6.78;3.90;;;;;;;13.64;52.46;100408.31;5051247;28;20522;-51
2021/05/25 01:43:07;;;;;;;4.55;3.03;;;;;;;13.70;52.10;100416.84;5051216;28;20053;-44
2021/05/25 01:45:33;;;;;;;6.40;3.33;;;;;;;13.65;51.73;100393.03;5051006;28;20040;-45
2021/05/25 01:48:01;;;;;;;8.20;4.20;;;;;;;13.82;51.65;100414.94;5050971;28;20119;-46
2021/05/25 01:50:27;;;;;;;7.57;3.47;;;;;;;13.85;51.46;100410.16;5051180;28;20486;-46
2021/05/25 01:52:56;;;;;;;4.40;3.00;;;;;;;13.91;51.14;100411.50;5051280;28;20115;-46
2021/05/25 01:55:46;;;;;;;5.22;2.92;;;;;;;13.93;50.97;100410.34;5051114;28;20037;-45
2021/05/25 01:58:20;;;;;;;6.95;3.20;;;;;;;13.95;50.88;100410.25;5051081;28;20074;-46
2021/05/25 02:00:51;;;;;;;6.80;2.80;;;;;;;13.90;50.66;100407.94;5051182;28;20083;-47
2021/05/25 02:03:18;;;;;;;7.20;2.78;;;;;;;13.83;50.88;100406.75;5051561;28;20119;-44
2021/05/25 02:05:46;;;;;;;5.47;2.35;;;;;;;13.77;50.79;100408.13;5050933;28;20099;-44
2021/05/25 02:08:11;;;;;;;6.05;2.50;;;;;;;13.78;50.64;100403.63;5050891;28;20102;-51
2021/05/25 02:10:39;;;;;;;4.25;2.33;;;;;;;13.88;50.30;100409.06;5050641;28;20486;-48
2021/05/25 02:13:10;;;;;;;3.65;2.28;;;;;;;14.03;50.03;100410.41;5050596;28;20036;-48
2021/05/25 02:15:37;;;;;;;3.33;2.10;;;;;;;14.13;49.74;100402.41;5050660;28;20142;-50
2021/05/25 02:18:08;;;;;;;3.13;1.95;;;;;;;14.27;49.09;100403.06;5050529;28;20032;-50
2021/05/25 02:20:34;;;;;;;3.45;2.40;;;;;;;14.32;48.69;100398.13;5050899;28;20044;-48
2021/05/25 02:23:00;;;;;;;4.32;2.08;;;;;;;14.54;48.43;100409.72;5049353;28;20079;-47
2021/05/25 02:25:26;;;;;;;5.63;2.40;;;;;;;14.77;47.77;100421.16;5049968;28;20064;-45
2021/05/25 02:27:51;;;;;;;3.90;2.00;;;;;;;15.06;46.95;100417.69;5050487;28;20111;-55
2021/05/25 02:30:17;;;;;;;4.53;1.80;;;;;;;15.33;46.19;100413.50;5050781;28;20041;-43
2021/05/25 02:32:43;;;;;;;3.38;1.80;;;;;;;15.38;45.81;100407.66;5050495;28;20039;-44
2021/05/25 02:35:09;;;;;;;3.17;1.70;;;;;;;15.49;45.62;100415.63;5050184;28;20041;-45
2021/05/25 02:37:36;;;;;;;4.35;1.60;;;;;;;15.50;45.39;100426.25;5050404;28;20035;-48
2021/05/25 02:40:02;;;;;;;1.92;1.55;;;;;;;15.41;45.28;100412.78;5050225;28;20025;-46
2021/05/25 02:42:28;;;;;;;3.78;1.40;;;;;;;15.29;45.13;100393.16;5050396;28;20068;-44
2021/05/25 02:44:54;;;;;;;7.70;1.85;;;;;;;15.24;45.44;100407.09;5050089;28;20033;-48
2021/05/25 02:47:19;;;;;;;2.08;1.50;;;;;;;15.13;45.67;100426.09;5050192;28;20045;-45
2021/05/25 02:49:46;;;;;;;6.32;1.70;;;;;;;14.95;45.69;100416.00;5050061;28;20079;-48
2021/05/25 02:52:12;;;;;;;3.88;1.55;;;;;;;14.90;46.24;100427.19;5050326;28;20041;-48
2021/05/25 02:54:38;;;;;;;3.63;1.60;;;;;;;14.88;46.42;100428.28;5049858;28;20036;-47
2021/05/25 02:57:03;;;;;;;4.72;1.60;;;;;;;14.89;46.66;100452.44;5050614;28;20033;-49
2021/05/25 02:59:29;;;;;;;5.60;1.40;;;;;;;14.87;46.59;100440.06;5050267;28;20490;-45
2021/05/25 03:01:54;;;;;;;3.70;1.40;;;;;;;14.87;46.21;100437.38;5050026;28;20059;-56
2021/05/25 03:04:20;;;;;;;2.47;1.40;;;;;;;14.92;46.35;100440.50;5050272;28;20512;-45
2021/05/25 03:06:45;;;;;;;5.68;1.27;;;;;;;14.92;46.20;100429.72;5049694;28;20094;-48
2021/05/25 03:09:11;;;;;;;4.93;1.63;;;;;;;14.97;46.26;100427.47;5049783;28;20060;-45
2021/05/25 03:11:36;;;;;;;2.42;1.17;;;;;;;15.20;45.79;100427.25;5050125;28;20033;-43
2021/05/25 03:14:02;;;;;;;4.68;1.45;;;;;;;15.29;45.49;100430.94;5050200;28;20086;-46
2021/05/25 03:16:28;;;;;;;5.13;1.30;;;;;;;15.42;45.06;100430.66;5048495;28;20443;-46
2021/05/25 03:18:53;;;;;;;3.78;1.20;;;;;;;15.77;44.27;100424.69;5050416;28;20151;-49
2021/05/25 03:21:19;;;;;;;4.30;1.30;;;;;;;16.11;43.12;100384.75;5049518;28;20052;-45
2021/05/25 03:23:45;;;;;;;3.97;1.30;;;;;;;17.00;42.04;100444.72;5049782;28;20124;-48
2021/05/25 03:26:11;;;;;;;3.35;1.20;;;;;;;17.64;40.65;100444.75;5050014;28;20090;-46
2021/05/25 03:28:37;;;;;;;5.68;1.55;;;;;;;18.32;39.10;100442.41;5049853;28;20389;-46
2021/05/25 03:31:03;;;;;;;2.28;1.42;;;;;;;18.88;37.78;100432.03;5049492;28;20029;-46
2021/05/25 03:33:28;;;;;;;2.22;1.10;;;;;;;19.37;36.47;100430.50;5049750;28;20119;-46
2021/05/25 03:35:54;;;;;;;3.15;1.20;;;;;;;19.91;35.46;100421.94;5050059;28;20087;-46
2021/05/25 03:38:19;;;;;;;2.03;1.17;;;;;;;20.35;34.46;100439.69;5052247;28;20408;-49
2021/05/25 03:40:44;;;;;;;4.07;1.48;;;;;;;20.60;34.00;100417.03;5053751;28;20081;-49
2021/05/25 03:43:10;;;;;;;3.50;1.58;;;;;;;21.03;33.08;100425.75;5053412;28;20148;-46
2021/05/25 03:45:35;;;;;;;4.93;1.20;;;;;;;21.48;32.77;100422.41;5053609;28;20051;-48
2021/05/25 03:48:01;;;;;;;3.78;1.30;;;;;;;22.03;31.44;100447.69;5053496;28;20043;-45
2021/05/25 03:50:27;;;;;;;3.78;1.52;;;;;;;22.59;30.54;100421.09;5052942;28;20090;-50
2021/05/25 03:52:55;;;;;;;2.72;1.55;;;;;;;23.11;29.43;100442.97;5052438;28;20410;-47
2021/05/25 04:00:42;;;;;;;4.13;1.60;;;;;;;24.46;27.36;100439.63;5051780;28;20036;-50
2021/05/25 04:03:08;;;;;;;2.45;1.40;;;;;;;25.01;26.65;100437.00;5052215;28;20039;-50
2021/05/25 04:05:33;;;;;;;4.70;1.40;;;;;;;25.56;25.55;100429.81;5051984;28;20540;-48
2021/05/25 04:07:59;;;;;;;5.38;1.50;;;;;;;26.03;24.42;100383.19;5052288;28;20244;-50
2021/05/25 04:10:25;;;;;;;7.55;1.35;;;;;;;27.01;23.44;100430.97;5053010;28;20048;-45
2021/05/25 04:12:50;;;;;;;3.03;1.50;;;;;;;27.19;23.11;100434.88;5052757;28;20043;-48
2021/05/25 04:15:16;;;;;;;1.63;1.20;;;;;;;27.62;22.65;100425.97;5053307;28;20922;-44
2021/05/25 04:17:42;;;;;;;2.50;1.67;;;;;;;28.34;21.68;100433.03;5052975;28;20029;-47
2021/05/25 04:20:10;;;;;;;2.78;1.35;;;;;;;28.67;21.06;100441.97;5052511;28;20039;-46
2021/05/25 04:22:36;;;;;;;3.78;1.30;;;;;;;29.15;20.75;100445.03;5052458;28;20036;-46
2021/05/25 04:25:02;;;;;;;5.85;1.42;;;;;;;29.46;20.06;100446.75;5052907;28;20099;-45
2021/05/25 04:27:27;;;;;;;3.55;1.38;;;;;;;29.74;19.84;100447.19;5052691;28;20449;-50
2021/05/25 04:29:53;;;;;;;5.00;1.30;;;;;;;30.27;19.01;100439.97;5052557;28;20057;-48
2021/05/25 04:32:18;;;;;;;6.28;1.38;;;;;;;30.91;18.55;100444.69;5052559;28;20086;-49
2021/05/25 04:34:44;;;;;;;3.30;1.40;;;;;;;31.46;17.59;100456.28;5052778;28;20417;-48
2021/05/25 04:37:10;;;;;;;2.42;1.30;;;;;;;31.71;17.00;100445.94;5052375;28;20033;-50
2021/05/25 04:39:36;;;;;;;4.47;1.30;;;;;;;32.02;16.55;100449.25;5052337;28;20041;-48
2021/05/25 04:42:01;;;;;;;3.75;1.30;;;;;;;32.11;16.83;100458.81;5052323;28;20057;-44
2021/05/25 04:44:27;;;;;;;3.42;1.25;;;;;;;32.27;16.71;100457.13;5052561;28;20045;-47
2021/05/25 04:46:52;;;;;;;2.10;1.17;;;;;;;32.65;15.67;100458.25;5052290;28;20056;-53
2021/05/25 04:49:18;;;;;;;2.45;1.02;;;;;;;33.05;15.56;100464.63;5051209;28;20374;-44
2021/05/25 04:51:43;;;;;;;6.03;1.58;;;;;;;33.50;15.27;100445.13;5052025;28;20040;-50
2021/05/25 04:54:08;;;;;;;2.55;1.45;;;;;;;34.11;14.33;100452.34;5052282;28;20041;-50
2021/05/25 04:56:35;;;;;;;4.82;1.38;;;;;;;34.30;14.57;100463.88;5052400;28;20083;-51
2021/05/25 04:59:00;;;;;;;4.32;1.50;;;;;;;34.51;14.31;100449.31;5052396;28;20035;-50
2021/05/25 05:01:27;;;;;;;3.58;1.40;;;;;;;34.45;14.37;100463.13;5052333;28;20490;-48
2021/05/25 05:03:54;;;;;;;5.85;1.70;;;;;;;34.51;14.39;100454.88;5052049;28;20025;-51
2021/05/25 05:06:19;;;;;;;11.55;1.98;;;;;;;34.93;13.93;100462.28;5051636;28;20028;-49
2021/05/25 05:08:45;;;;;;;2.42;1.50;;;;;;;35.24;13.53;100459.66;5051802;28;20520;-50
2021/05/25 05:11:12;;;;;;;2.28;1.35;;;;;;;35.69;13.42;100460.03;5051461;28;20049;-47
2021/05/25 05:13:37;;;;;;;7.65;1.75;;;;;;;36.15;13.09;100456.41;5051747;28;20079;-52
2021/05/25 05:16:03;;;;;;;3.90;1.60;;;;;;;37.00;12.32;100472.63;5051697;28;20072;-49
2021/05/25 05:18:29;;;;;;;4.80;1.40;;;;;;;37.29;11.89;100458.00;5050720;28;20544;-50
2021/05/25 05:20:54;;;;;;;1.95;1.42;;;;;;;38.32;11.38;100471.19;5051427;28;20514;-47
2021/05/25 05:23:20;;;;;;;4.13;1.60;;;;;;;38.87;10.32;100458.81;5051343;28;20051;-52
2021/05/25 05:25:45;;;;;;;3.45;1.38;;;;;;;39.08;10.04;100471.75;5051438;28;20037;-50
2021/05/25 05:28:10;;;;;;;3.78;1.50;;;;;;;39.32;9.98;100471.69;5051546;28;20112;-47
2021/05/25 05:30:36;;;;;;;3.45;1.60;;;;;;;39.99;9.86;100467.00;5051407;28;20466;-51
2021/05/25 05:33:03;;;;;;;5.47;1.45;;;;;;;40.64;9.10;100464.44;5050963;28;20090;-54
2021/05/25 05:35:28;;;;;;;5.35;1.75;;;;;;;41.48;8.69;100470.78;5051406;28;20547;-52
2021/05/25 05:37:54;;;;;;;3.42;1.60;;;;;;;41.95;8.41;100472.44;5051171;28;20041;-53
2021/05/25 05:40:19;;;;;;;4.90;1.70;;;;;;;42.60;7.81;100468.19;5051153;28;20590;-52
2021/05/25 05:42:45;;;;;;;2.25;1.23;;;;;;;43.25;6.84;100442.31;5051444;28;20099;-51
2021/05/25 05:45:11;;;;;;;4.20;1.38;;;;;;;43.91;6.51;100460.19;5051573;28;20037;-51
2021/05/25 05:47:38;;;;;;;6.22;1.73;;;;;;;44.23;6.56;100474.88;5051454;28;20052;-51
2021/05/25 05:50:10;;;;;;;2.15;1.38;;;;;;;43.92;6.31;100461.03;5051484;28;20553;-50
2021/05/25 05:52:38;;;;;;;5.45;1.33;;;;;;;44.14;6.31;100489.06;5051346;28;20083;-51
2021/05/25 05:55:05;;;;;;;2.25;1.40;;;;;;;44.61;5.94;100487.38;5050100;28;20064;-46
2021/05/25 05:57:31;;;;;;;2.70;1.58;;;;;;;44.83;6.08;100471.31;5051313;28;20032;-51
2021/05/25 05:59:56;;;;;;;2.78;1.45;;;;;;;45.11;6.11;100476.50;5050647;28;20091;-48
2021/05/25 06:02:22;;;;;;;6.40;1.52;;;;;;;45.48;5.74;100479.53;5050946;28;20044;-52
2021/05/25 06:04:47;;;;;;;2.80;1.67;;;;;;;45.74;6.00;100481.31;5050617;28;20040;-52
2021/05/25 06:07:13;;;;;;;3.33;1.52;;;;;;;46.08;5.43;100467.97;5050800;28;20386;-53
2021/05/25 06:09:38;;;;;;;4.82;1.70;;;;;;;46.70;5.35;100464.41;5050946;28;20033;-49
2021/05/25 06:12:04;;;;;;;2.72;1.50;;;;;;;47.41;4.57;100475.47;5050708;28;20067;-57
2021/05/25 06:14:29;;;;;;;2.53;1.48;;;;;;;47.70;4.33;100454.47;5051042;28;20048;-54
2021/05/25 06:16:55;;;;;;;5.68;1.65;;;;;;;47.29;4.90;100443.19;5050681;28;20040;-52
2021/05/25 06:19:20;;;;;;;3.65;1.40;;;;;;;47.03;4.75;100480.41;5050924;28;20123;-55
2021/05/25 06:21:46;;;;;;;3.10;1.80;;;;;;;47.27;4.33;100465.38;5050723;28;20120;-54
2021/05/25 06:24:14;;;;;;;3.55;1.40;;;;;;;47.15;4.26;100465.38;5050586;28;20087;-51
2021/05/25 06:26:40;;;;;;;3.70;1.10;;;;;;;47.54;4.05;100462.91;5050223;28;20029;-48
2021/05/25 06:29:06;;;;;;;7.18;1.23;;;;;;;48.11;3.54;100465.69;5050001;28;20075;-51
2021/05/25 06:31:31;;;;;;;2.20;1.48;;;;;;;48.67;3.16;100465.88;5048977;28;20082;-52
2021/05/25 06:33:56;;;;;;;2.80;2.60;;;;;;;48.63;3.42;100476.34;5048946;28;20117;-48
2021/05/25 06:36:22;;;;;;;3.55;1.63;;;;;;;48.85;3.23;100469.97;5048746;28;20513;-55
2021/05/25 06:38:47;;;;;;;3.42;1.67;;;;;;;49.49;2.98;100470.94;5048730;28;20098;-47
2021/05/25 06:41:13;;;;;;;2.28;1.45;;;;;;;50.23;2.70;100483.34;5050141;28;20036;-48
2021/05/25 06:43:38;;;;;;;2.60;1.27;;;;;;;50.72;2.06;100470.31;5049561;28;20057;-53
2021/05/25 06:46:06;;;;;;;2.75;1.60;;;;;;;51.26;2.08;100473.91;5050023;28;20048;-48
2021/05/25 06:48:31;;;;;;;3.17;1.45;;;;;;;51.65;1.89;100457.69;5049971;28;20463;-45
2021/05/25 06:50:58;;;;;;;6.22;1.40;;;;;;;51.39;2.24;100471.66;5048534;28;20033;-51
2021/05/25 06:53:23;;;;;;;3.42;1.60;;;;;;;51.35;2.12;100428.00;5049793;28;20025;-50
2021/05/25 06:55:49;;;;;;;6.10;1.55;;;;;;;52.38;1.65;100451.47;5049900;28;20037;-49
2021/05/25 06:58:14;;;;;;;1.98;1.58;;;;;;;52.94;1.34;100465.69;5049802;28;20032;-49
2021/05/25 07:00:40;;;;;;;2.97;1.90;;;;;;;52.97;1.63;100464.88;5047849;28;20045;-46
2021/05/25 07:03:05;;;;;;;4.43;1.38;;;;;;;52.31;1.71;100456.25;5059229;28;20039;-51
2021/05/25 07:05:31;;;;;;;2.95;1.90;;;;;;;52.05;1.65;100458.91;5059029;28;20110;-49
2021/05/25 07:07:56;;;;;;;2.00;1.52;;;;;;;51.94;1.50;100449.41;5057441;28;20033;-52
2021/05/25 07:10:22;;;;;;;3.13;2.22;;;;;;;51.99;1.32;100429.09;5059245;28;20036;-50
2021/05/25 07:12:47;;;;;;;2.42;1.92;;;;;;;52.34;1.41;100442.06;5062517;28;20033;-50
2021/05/25 07:15:13;;;;;;;1.65;1.55;;;;;;;52.47;1.37;100438.84;5063788;28;20055;-50
2021/05/25 07:17:44;;;;;;;4.32;1.55;;;;;;;52.20;1.31;100424.75;5061273;28;20056;-51
2021/05/25 07:20:10;;;;;;;2.15;1.77;;;;;;;51.95;1.43;100431.06;5053766;28;20095;-49
2021/05/25 07:22:36;;;;;;;5.78;2.10;;;;;;;51.99;1.92;100442.53;5053792;28;20196;-59
2021/05/25 07:25:02;;;;;;;4.72;2.03;;;;;;;52.32;1.54;100430.16;5054347;28;20186;-48
2021/05/25 07:27:27;;;;;;;2.42;1.77;;;;;;;52.54;1.47;100436.03;5053200;28;20029;-49
2021/05/25 07:29:53;;;;;;;3.60;1.58;;;;;;;52.11;1.40;100417.38;5053748;28;20033;-49
2021/05/25 07:32:18;;;;;;;1.80;1.63;;;;;;;51.66;1.45;100428.75;5052398;28;20029;-55
2021/05/25 07:34:44;;;;;;;1.83;1.50;;;;;;;49.68;2.11;100431.09;5053483;28;20036;-51
2021/05/25 07:37:10;;;;;;;3.20;1.63;;;;;;;48.13;2.75;100432.09;5052006;28;20083;-51
2021/05/25 07:39:36;;;;;;;3.25;1.40;;;;;;;48.12;2.54;100419.09;5048875;28;20032;-56
2021/05/25 07:42:02;;;;;;;2.20;1.35;;;;;;;48.39;1.71;100427.84;5067327;28;20099;-59
2021/05/25 07:44:27;;;;;;;3.45;1.40;;;;;;;49.10;1.93;100427.06;5058476;28;20417;-54
2021/05/25 07:46:54;;;;;;;1.98;1.33;;;;;;;50.04;1.59;100393.94;5066867;28;20474;-51
2021/05/25 07:49:19;;;;;;;1.73;1.20;;;;;;;51.16;1.28;100422.44;5060105;28;20089;-52
2021/05/25 07:51:45;;;;;;;2.03;1.40;;;;;;;51.29;1.61;100378.22;5067753;28;20033;-52
2021/05/25 07:54:10;;;;;;;4.25;1.60;;;;;;;52.00;1.53;100425.00;5052209;28;20052;-55
2021/05/25 07:56:37;;;;;;;19.08;2.70;;;;;;;52.15;1.57;100405.97;5052411;28;20086;-55
2021/05/25 07:59:02;;;;;;;1.73;1.50;;;;;;;50.97;1.80;100418.53;5052503;28;20032;-54
2021/05/25 08:01:28;;;;;;;1.67;1.48;;;;;;;49.48;1.59;100416.06;5052199;28;20029;-55
2021/05/25 08:03:53;;;;;;;2.55;1.30;;;;;;;48.05;2.66;100420.91;5052355;28;20029;-46
2021/05/25 08:06:19;;;;;;;3.35;1.10;;;;;;;44.47;4.00;100407.72;5052184;28;20040;-47
2021/05/25 08:08:44;;;;;;;2.25;1.17;;;;;;;42.25;4.73;100413.75;5052114;28;20422;-51
2021/05/25 08:11:13;;;;;;;2.38;1.30;;;;;;;41.64;4.94;100400.16;5065819;28;20040;-56
2021/05/25 08:13:41;;;;;;;4.43;1.50;;;;;;;41.95;5.04;100428.28;5055347;28;20071;-51
2021/05/25 08:16:07;;;;;;;2.38;1.05;;;;;;;41.34;5.17;100423.03;5067030;28;20041;-52
2021/05/25 08:21:17;;;;;;;4.47;1.25;;;;;;;36.78;7.58;100424.47;5067619;28;20028;-58
2021/05/25 08:23:43;;;;;;;4.78;1.75;;;;;;;34.62;9.09;100412.09;5061178;28;20036;-55
2021/05/25 08:26:10;;;;;;;2.35;1.45;;;;;;;32.62;10.71;100413.59;5062448;28;20047;-57
2021/05/25 08:28:36;;;;;;;2.95;1.13;;;;;;;31.06;12.18;100427.56;5062658;28;20127;-52
2021/05/25 08:31:02;;;;;;;0.80;0.80;;;;;;;29.48;13.36;100391.34;5063549;28;20119;-53
2021/05/25 08:33:28;;;;;;;3.08;1.08;;;;;;;28.78;14.61;100430.19;5056752;28;20067;-55
2021/05/25 08:35:54;;;;;;;5.13;1.40;;;;;;;27.91;15.59;100409.88;5062350;28;20461;-52
2021/05/25 08:38:21;;;;;;;4.47;1.10;;;;;;;27.49;15.73;100437.00;5056761;28;20124;-54
2021/05/25 08:40:50;;;;;;;5.53;1.38;;;;;;;26.91;16.38;100416.81;5062912;28;20388;-55
2021/05/25 08:43:15;;;;;;;2.30;0.90;;;;;;;26.61;17.06;100425.56;5060193;28;20087;-49
2021/05/25 08:45:42;;;;;;;2.65;1.10;;;;;;;25.89;18.11;100427.09;5061973;28;20109;-52
2021/05/25 08:48:08;;;;;;;2.85;1.00;;;;;;;25.44;18.26;100435.03;5062048;28;20455;-59
2021/05/25 08:50:33;;;;;;;8.48;0.80;;;;;;;24.96;18.41;100411.28;5057509;28;20037;-53
2021/05/25 08:53:01;;;;;;;3.30;0.80;;;;;;;24.55;18.29;100367.28;5057825;28;20039;-57
2021/05/25 08:55:29;;;;;;;2.33;0.80;;;;;;;24.48;18.39;100400.06;5064696;28;20522;-56
2021/05/25 08:57:55;;;;;;;2.53;1.00;;;;;;;24.52;18.72;100434.19;5061545;28;20029;-55
2021/05/25 09:00:21;;;;;;;2.38;0.85;;;;;;;24.56;18.84;100428.31;5057425;28;20090;-54
2021/05/25 09:02:47;;;;;;;4.38;0.90;;;;;;;23.98;18.98;100328.19;5060912;28;20175;-51
2021/05/25 09:05:18;;;;;;;3.58;1.08;;;;;;;24.34;19.20;100393.69;5056038;28;20675;-54
2021/05/25 09:07:46;;;;;;;1.90;0.70;;;;;;;24.64;19.25;100428.19;5062243;28;20041;-55
2021/05/25 09:10:20;;;;;;;2.80;0.80;;;;;;;24.45;19.43;100432.47;5054186;28;20115;-53
2021/05/25 09:12:51;;;;;;;1.33;0.80;;;;;;;24.20;19.52;100424.72;5063635;28;20502;-54
2021/05/25 09:15:38;;;;;;;6.38;0.90;;;;;;;24.37;19.01;100425.28;5060724;28;20090;-53
2021/05/25 09:18:23;;;;;;;4.07;1.27;;;;;;;24.54;18.77;100419.47;5063494;28;20051;-53
2021/05/25 09:20:53;;;;;;;3.35;0.70;;;;;;;24.64;18.76;100414.50;5050914;28;20044;-53
2021/05/25 09:23:23;;;;;;;4.10;0.90;;;;;;;24.37;18.52;100337.72;5064069;28;20497;-56
2021/05/25 09:25:59;;;;;;;3.58;1.02;;;;;;;24.77;18.38;100417.31;5060180;28;20033;-57
2021/05/25 09:28:26;;;;;;;3.72;0.90;;;;;;;24.97;18.62;100407.50;5053601;28;20393;-58
2021/05/25 09:30:53;;;;;;;3.53;1.00;;;;;;;25.17;18.97;100410.31;5064281;28;20025;-58
2021/05/25 09:33:20;;;;;;;3.83;0.90;;;;;;;25.37;18.52;100411.22;5063508;28;20043;-57
2021/05/25 09:35:48;;;;;;;1.42;0.75;;;;;;;25.67;18.48;100422.88;5053285;28;20028;-57
2021/05/25 09:38:14;;;;;;;2.13;0.75;;;;;;;25.41;18.58;100353.22;5053695;28;20043;-51
2021/05/25 09:40:43;;;;;;;7.70;1.00;;;;;;;25.36;18.57;100373.88;5055053;28;20595;-53
2021/05/25 09:43:12;;;;;;;3.65;0.80;;;;;;;25.15;19.24;100399.53;5052552;28;20048;-49
2021/05/25 09:46:09;;;;;;;0.93;0.60;;;;;;;25.04;19.03;100411.94;5067562;28;20489;-48
2021/05/25 09:48:44;;;;;;;2.58;0.65;;;;;;;24.84;19.26;100402.78;5053178;28;20094;-52
2021/05/25 09:51:19;;;;;;;2.13;0.90;;;;;;;24.31;18.90;100344.84;5050916;28;20025;-47
2021/05/25 09:53:49;;;;;;;;;;;;;;;25.06;18.00;100407.09;5068726;28;20255;-49
2021/05/25 09:56:25;;;;;;;0.77;0.70;;;;;;;25.11;18.79;100419.34;5068897;28;19920;-49
2021/05/25 09:58:50;;;;;;;1.77;0.80;;;;;;;25.06;19.13;100390.66;5066692;28;20476;-50
2021/05/25 10:01:16;;;;;;;2.15;0.90;;;;;;;25.27;19.07;100402.53;5051008;28;20036;-51
2021/05/25 10:03:48;;;;;;;2.90;1.05;;;;;;;25.18;19.03;100392.81;5067651;28;20037;-51
2021/05/25 10:06:14;;;;;;;1.60;0.80;;;;;;;24.64;19.61;100352.34;5067980;28;20024;-50
2021/05/25 10:08:45;;;;;;;2.65;0.90;;;;;;;24.78;19.87;100415.44;5062339;28;20070;-53
2021/05/25 10:11:15;;;;;;;3.00;0.80;;;;;;;24.42;20.51;100400.03;5059437;28;20036;-53
2021/05/25 10:13:41;;;;;;;3.50;0.82;;;;;;;24.12;20.60;100387.44;5056990;28;20036;-51
2021/05/25 10:16:09;;;;;;;5.00;0.90;;;;;;;24.20;20.42;100409.16;5053993;28;20093;-61
2021/05/25 10:18:50;;;;;;;2.80;0.90;;;;;;;24.35;20.19;100411.78;5059366;28;20045;-50
2021/05/25 10:21:16;;;;;;;5.70;0.90;;;;;;;24.82;20.15;100396.69;5065308;28;20032;-60
2021/05/25 10:23:43;;;;;;;2.65;0.90;;;;;;;25.20;19.88;100390.72;5065796;28;20077;-52
2021/05/25 10:26:13;;;;;;;1.48;0.73;;;;;;;25.36;19.74;100371.16;5066761;28;20078;-54
2021/05/25 10:28:45;;;;;;;2.03;0.80;;;;;;;25.66;19.90;100400.06;5054007;28;20037;-56
2021/05/25 10:31:32;;;;;;;1.65;0.80;;;;;;;26.01;19.04;100404.50;5050449;28;20063;-50
2021/05/25 10:34:19;;;;;;;2.08;0.80;;;;;;;25.91;19.21;100421.41;5049855;28;20494;-50
2021/05/25 10:36:49;;;;;;;3.38;0.80;;;;;;;25.56;19.07;100400.53;5051808;28;20033;-47
2021/05/25 10:39:43;;;;;;;3.53;1.08;;;;;;;25.06;19.62;100362.44;5052375;28;20090;-49
2021/05/25 10:42:18;;;;;;;3.72;1.20;;;;;;;25.01;19.96;100404.13;5052317;28;20148;-54
2021/05/25 10:45:06;;;;;;;2.97;1.05;;;;;;;24.65;20.35;100408.78;5051817;28;20063;-49
2021/05/25 10:47:38;;;;;;;2.05;0.93;;;;;;;24.02;20.99;100395.16;5064460;28;20028;-51
2021/05/25 10:50:29;;;;;;;3.17;0.82;;;;;;;23.47;21.70;100390.22;5051819;28;20044;-45
2021/05/25 10:52:55;;;;;;;1.23;0.88;;;;;;;23.44;21.79;100396.09;5051609;28;20303;-52
2021/05/25 10:55:29;;;;;;;3.75;0.90;;;;;;;23.63;21.47;100403.66;5053862;28;20482;-52
2021/05/25 10:57:56;;;;;;;3.30;1.13;;;;;;;23.67;21.23;100370.44;5049666;28;20538;-46
2021/05/25 11:00:48;;;;;;;2.35;1.00;;;;;;;24.10;21.15;100386.78;5051139;28;20033;-49
2021/05/25 11:03:24;;;;;;;2.40;0.80;;;;;;;24.01;20.48;100374.28;5050840;28;20033;-52
2021/05/25 11:05:55;;;;;;;1.65;0.55;;;;;;;24.13;19.78;100372.72;5066038;28;20093;-49
2021/05/25 11:08:29;;;;;;;1.65;0.68;;;;;;;24.14;20.39;100381.75;5065694;28;20037;-53
2021/05/25 11:11:04;;;;;;;1.55;0.60;;;;;;;24.22;20.14;100360.56;5051465;28;20703;-51
2021/05/25 11:13:36;;;;;;;1.50;0.63;;;;;;;24.21;19.87;100350.66;5065815;28;20051;-50
2021/05/25 11:16:28;;;;;;;2.47;0.50;;;;;;;24.30;19.48;100366.91;5054170;28;20146;-50
2021/05/25 11:19:22;;;;;;;1.60;0.70;;;;;;;24.15;20.30;100370.63;5065525;28;20076;-47
2021/05/25 11:24:53;;;;;;;2.20;0.70;;;;;;;23.51;20.82;100378.72;5051292;28;20033;-50
2021/05/25 11:27:31;;;;;;;1.77;0.70;;;;;;;23.32;21.11;100369.28;5053078;28;20071;-49
2021/05/25 11:30:05;;;;;;;3.83;0.90;;;;;;;23.07;21.62;100376.97;5051684;28;20060;-46
2021/05/25 11:32:36;;;;;;;2.97;0.82;;;;;;;22.84;21.90;100366.19;5050235;28;20485;-53
2021/05/25 11:35:07;;;;;;;1.98;0.60;;;;;;;22.80;21.59;100366.56;5049583;28;20055;-50
2021/05/25 11:37:36;;;;;;;2.40;0.60;;;;;;;22.80;21.79;100360.28;5063403;28;20469;-47
2021/05/25 11:40:05;;;;;;;0.77;0.60;;;;;;;22.83;21.74;100359.91;5065794;28;20035;-55